createdAt,value
2018-02-09T00:00:37.240Z,50.50
2018-02-09T00:01:40.453Z,45.50
2018-02-09T00:02:43.343Z,41.50
2018-02-09T00:03:46.238Z,43.50
2018-02-09T00:04:49.188Z,46.00
2018-02-09T00:05:52.204Z,45.50
2018-02-09T00:06:55.156Z,46.00
2018-02-09T00:07:58.421Z,50.50
2018-02-09T00:09:01.368Z,48.50
2018-02-09T00:10:04.305Z,48.00
2018-02-09T00:11:07.240Z,48.00
2018-02-09T00:12:10.211Z,47.00
2018-02-09T00:13:13.173Z,51.00
2018-02-09T00:14:16.138Z,60.50
2018-02-09T00:15:19.081Z,45.50
2018-02-09T00:16:21.981Z,48.50
2018-02-09T00:17:24.927Z,50.00
2018-02-09T00:18:27.836Z,50.50
2018-02-09T00:19:30.997Z,47.00
2018-02-09T00:20:33.920Z,51.50
2018-02-09T00:21:36.846Z,52.50
2018-02-09T00:22:39.808Z,45.50
2018-02-09T00:23:42.772Z,51.50
2018-02-09T00:24:45.700Z,41.50
2018-02-09T00:25:48.858Z,44.00
2018-02-09T00:26:51.782Z,49.00
2018-02-09T00:27:54.645Z,48.00
2018-02-09T00:28:57.512Z,39.50
2018-02-09T00:30:00.396Z,48.00
2018-02-09T00:31:03.314Z,43.50
2018-02-09T00:32:06.558Z,37.00
2018-02-09T00:33:09.487Z,49.50
2018-02-09T00:34:12.462Z,47.50
2018-02-09T00:35:15.400Z,50.00
2018-02-09T00:36:18.359Z,41.00
2018-02-09T00:37:21.230Z,43.50
2018-02-09T00:38:24.443Z,44.50
2018-02-09T00:39:27.407Z,40.00
2018-02-09T00:40:30.291Z,39.50
2018-02-09T00:41:33.168Z,49.50
2018-02-09T00:42:36.016Z,42.00
2018-02-09T00:43:38.869Z,44.00
2018-02-09T00:44:42.015Z,47.00
2018-02-09T00:45:44.951Z,41.50
2018-02-09T00:46:47.815Z,50.00
2018-02-09T00:47:50.686Z,51.00
2018-02-09T00:48:53.584Z,39.00
2018-02-09T00:49:56.457Z,49.50
2018-02-09T00:50:59.655Z,56.50
2018-02-09T00:52:02.589Z,41.00
2018-02-09T00:53:05.548Z,48.00
2018-02-09T00:54:08.517Z,38.50
2018-02-09T00:55:11.516Z,44.50
2018-02-09T00:56:14.457Z,47.50
2018-02-09T00:57:17.696Z,45.00
2018-02-09T00:58:20.652Z,43.00
2018-02-09T00:59:23.596Z,46.00
2018-02-09T01:00:26.634Z,44.00
2018-02-09T01:01:29.577Z,51.00
2018-02-09T01:02:32.557Z,43.00
2018-02-09T01:03:35.792Z,41.50
2018-02-09T01:04:38.712Z,43.00
2018-02-09T01:05:41.651Z,44.00
2018-02-09T01:06:44.575Z,39.50
2018-02-09T01:07:47.565Z,37.00
2018-02-09T01:08:50.480Z,46.00
2018-02-09T01:09:53.775Z,43.00
2018-02-09T01:10:56.737Z,45.00
2018-02-09T01:11:59.668Z,42.00
2018-02-09T01:13:02.623Z,52.00
2018-02-09T01:14:05.568Z,41.00
2018-02-09T01:15:08.496Z,41.00
2018-02-09T01:16:11.884Z,44.00
2018-02-09T01:17:14.879Z,42.50
2018-02-09T01:18:17.840Z,40.50
2018-02-09T01:19:20.822Z,44.00
2018-02-09T01:20:23.744Z,48.50
2018-02-09T01:21:26.710Z,49.00
2018-02-09T01:22:29.957Z,41.50
2018-02-09T01:23:32.923Z,39.00
2018-02-09T01:24:35.885Z,46.50
2018-02-09T01:25:38.818Z,43.00
2018-02-09T01:26:41.757Z,49.00
2018-02-09T01:27:44.719Z,30.50
2018-02-09T01:28:47.993Z,48.00
2018-02-09T01:29:50.911Z,42.00
2018-02-09T01:30:53.850Z,40.00
2018-02-09T01:31:56.848Z,42.50
2018-02-09T01:32:59.795Z,40.00
2018-02-09T01:34:02.768Z,39.00
2018-02-09T01:35:05.975Z,43.00
2018-02-09T01:36:08.917Z,46.50
2018-02-09T01:37:11.878Z,42.00
2018-02-09T01:38:14.796Z,41.00
2018-02-09T01:39:17.758Z,48.00
2018-02-09T01:40:20.784Z,44.50
2018-02-09T01:41:24.012Z,48.50
2018-02-09T01:42:26.965Z,46.00
2018-02-09T01:43:29.843Z,42.50
2018-02-09T01:44:32.741Z,45.00
2018-02-09T01:45:35.712Z,43.50
2018-02-09T01:46:38.616Z,37.50
2018-02-09T01:47:41.762Z,36.50
2018-02-09T01:48:44.696Z,42.00
2018-02-09T01:49:47.635Z,42.00
2018-02-09T01:50:50.597Z,46.00
2018-02-09T01:51:53.523Z,45.00
2018-02-09T01:52:56.441Z,44.00
2018-02-09T01:53:59.695Z,39.00
2018-02-09T01:55:02.602Z,46.00
2018-02-09T01:56:05.552Z,45.50
2018-02-09T01:57:08.506Z,47.50
2018-02-09T01:58:11.449Z,39.50
2018-02-09T01:59:14.392Z,45.00
2018-02-09T02:00:17.651Z,42.50
2018-02-09T02:01:20.596Z,42.00
2018-02-09T02:02:23.493Z,48.00
2018-02-09T02:03:26.414Z,41.50
2018-02-09T02:04:29.314Z,44.00
2018-02-09T02:05:32.255Z,49.50
2018-02-09T02:06:35.425Z,47.00
2018-02-09T02:07:38.308Z,49.00
2018-02-09T02:08:41.194Z,41.00
2018-02-09T02:09:44.090Z,36.00
2018-02-09T02:10:46.962Z,41.00
2018-02-09T02:11:49.852Z,41.00
2018-02-09T02:12:53.012Z,43.50
2018-02-09T02:13:55.907Z,42.00
2018-02-09T02:14:58.837Z,42.00
2018-02-09T02:16:01.807Z,39.00
2018-02-09T02:17:04.916Z,45.50
2018-02-09T02:18:07.851Z,38.50
2018-02-09T02:19:11.087Z,41.50
2018-02-09T02:20:14.048Z,43.50
2018-02-09T02:21:17.068Z,38.00
2018-02-09T02:22:19.998Z,41.50
2018-02-09T02:23:22.949Z,38.50
2018-02-09T02:24:25.795Z,45.00
2018-02-09T02:25:28.966Z,38.00
2018-02-09T02:26:31.838Z,44.00
2018-02-09T02:27:34.757Z,45.50
2018-02-09T02:28:37.654Z,45.00
2018-02-09T02:29:40.537Z,40.00
2018-02-09T02:30:43.427Z,44.00
2018-02-09T02:31:46.607Z,46.50
2018-02-09T02:32:50.254Z,40.50
2018-02-09T02:33:53.180Z,46.50
2018-02-09T02:34:56.113Z,48.50
2018-02-09T02:35:59.046Z,44.00
2018-02-09T02:37:02.018Z,40.00
2018-02-09T02:38:04.987Z,41.00
2018-02-09T02:39:07.944Z,45.50
2018-02-09T02:40:10.941Z,48.00
2018-02-09T02:41:13.898Z,36.50
2018-02-09T02:42:16.840Z,41.00
2018-02-09T02:43:20.083Z,44.00
2018-02-09T02:44:22.950Z,42.50
2018-02-09T02:45:25.865Z,40.50
2018-02-09T02:46:28.732Z,44.50
2018-02-09T02:47:31.715Z,39.50
2018-02-09T02:48:34.672Z,38.00
2018-02-09T02:49:37.888Z,48.50
2018-02-09T02:50:40.823Z,33.00
2018-02-09T02:51:43.745Z,49.00
2018-02-09T02:52:46.706Z,46.50
2018-02-09T02:53:49.710Z,40.00
2018-02-09T02:54:52.646Z,37.00
2018-02-09T02:55:55.819Z,41.50
2018-02-09T02:56:58.692Z,43.00
2018-02-09T02:58:01.624Z,47.00
2018-02-09T02:59:04.551Z,37.00
2018-02-09T03:00:07.565Z,38.50
2018-02-09T03:01:10.716Z,46.00
2018-02-09T03:02:13.999Z,42.00
2018-02-09T03:03:16.910Z,42.00
2018-02-09T03:04:19.832Z,40.00
2018-02-09T03:05:22.882Z,35.00
2018-02-09T03:06:25.812Z,42.00
2018-02-09T03:07:28.782Z,35.50
2018-02-09T03:08:32.035Z,36.00
2018-02-09T03:09:34.965Z,43.00
2018-02-09T03:10:37.932Z,38.00
2018-02-09T03:11:40.868Z,33.00
2018-02-09T03:12:43.814Z,41.00
2018-02-09T03:13:46.681Z,38.00
2018-02-09T03:14:49.849Z,41.50
2018-02-09T03:15:52.770Z,36.50
2018-02-09T03:16:55.677Z,41.50
2018-02-09T03:17:58.551Z,45.50
2018-02-09T03:19:01.464Z,43.50
2018-02-09T03:20:04.342Z,46.50
2018-02-09T03:21:07.500Z,40.50
2018-02-09T03:22:10.383Z,38.00
2018-02-09T03:23:13.274Z,35.50
2018-02-09T03:24:16.180Z,38.50
2018-02-09T03:25:19.061Z,45.50
2018-02-09T03:26:21.938Z,39.00
2018-02-09T03:27:25.109Z,36.50
2018-02-09T03:28:28.011Z,37.00
2018-02-09T03:29:30.884Z,35.00
2018-02-09T03:30:35.438Z,46.50
2018-02-09T03:31:38.395Z,43.00
2018-02-09T03:32:41.364Z,42.50
2018-02-09T03:33:44.312Z,41.50
2018-02-09T03:34:47.242Z,42.50
2018-02-09T03:35:50.202Z,41.50
2018-02-09T03:36:53.133Z,39.00
2018-02-09T03:37:56.060Z,38.00
2018-02-09T03:38:59.338Z,40.00
2018-02-09T03:40:02.273Z,40.00
2018-02-09T03:41:05.211Z,41.50
2018-02-09T03:42:08.176Z,46.00
2018-02-09T03:43:11.129Z,44.50
2018-02-09T03:44:14.179Z,41.00
2018-02-09T03:45:18.557Z,40.50
2018-02-09T03:46:21.480Z,41.50
2018-02-09T03:47:24.424Z,45.50
2018-02-09T03:48:28.073Z,45.00
2018-02-09T03:49:31.946Z,41.50
2018-02-09T03:50:35.937Z,45.00
2018-02-09T03:51:39.376Z,40.00
2018-02-09T03:52:42.327Z,49.00
2018-02-09T03:53:45.326Z,47.00
2018-02-09T03:54:48.234Z,45.50
2018-02-09T03:55:51.260Z,37.50
2018-02-09T03:56:54.184Z,41.50
2018-02-09T03:57:57.116Z,41.00
2018-02-09T03:59:00.057Z,38.00
2018-02-09T04:00:03.168Z,58.50
2018-02-09T04:01:06.104Z,46.50
2018-02-09T04:02:09.060Z,45.50
2018-02-09T04:03:12.226Z,42.00
2018-02-09T04:04:15.107Z,43.50
2018-02-09T04:05:17.980Z,42.50
2018-02-09T04:06:20.944Z,42.00
2018-02-09T04:07:23.884Z,39.00
2018-02-09T04:08:27.697Z,44.50
2018-02-09T04:09:32.570Z,41.00
2018-02-09T04:10:35.628Z,39.00
2018-02-09T04:11:38.568Z,37.00
2018-02-09T04:12:41.520Z,40.50
2018-02-09T04:13:44.480Z,47.00
2018-02-09T04:14:47.433Z,40.00
2018-02-09T04:15:50.667Z,43.50
2018-02-09T04:16:53.648Z,47.00
2018-02-09T04:17:56.600Z,37.00
2018-02-09T04:19:00.103Z,37.00
2018-02-09T04:20:03.131Z,41.00
2018-02-09T04:21:06.085Z,36.00
2018-02-09T04:22:09.337Z,35.50
2018-02-09T04:23:12.334Z,40.50
2018-02-09T04:24:15.247Z,34.00
2018-02-09T04:25:18.184Z,40.50
2018-02-09T04:26:21.153Z,37.50
2018-02-09T04:27:24.093Z,35.00
2018-02-09T04:28:27.712Z,38.00
2018-02-09T04:29:30.599Z,32.50
2018-02-09T04:30:33.568Z,30.50
2018-02-09T04:31:36.508Z,35.50
2018-02-09T04:32:39.396Z,31.00
2018-02-09T04:33:42.269Z,41.50
2018-02-09T04:34:45.426Z,36.00
2018-02-09T04:35:48.336Z,33.00
2018-02-09T04:36:51.205Z,35.00
2018-02-09T04:37:54.144Z,29.00
2018-02-09T04:38:57.014Z,38.00
2018-02-09T04:39:59.897Z,31.00
2018-02-09T04:41:03.225Z,39.50
2018-02-09T04:42:06.149Z,33.50
2018-02-09T04:43:09.085Z,30.50
2018-02-09T04:44:12.065Z,27.50
2018-02-09T04:45:15.044Z,33.50
2018-02-09T04:46:18.020Z,37.50
2018-02-09T04:47:21.395Z,41.00
2018-02-09T04:48:24.237Z,36.50
2018-02-09T04:49:27.185Z,36.00
2018-02-09T04:50:30.122Z,30.00
2018-02-09T04:51:32.973Z,32.50
2018-02-09T04:52:35.906Z,28.50
2018-02-09T04:53:39.140Z,40.00
2018-02-09T04:54:42.092Z,40.00
2018-02-09T04:55:45.013Z,36.00
2018-02-09T04:56:47.963Z,37.50
2018-02-09T04:57:50.926Z,38.00
2018-02-09T04:58:54.140Z,39.00
2018-02-09T04:59:57.095Z,35.00
2018-02-09T05:01:00.045Z,43.50
2018-02-09T05:02:03.020Z,33.00
2018-02-09T05:03:05.961Z,43.00
2018-02-09T05:04:08.932Z,44.50
2018-02-09T05:05:12.154Z,39.00
2018-02-09T05:06:15.077Z,35.50
2018-02-09T05:07:18.005Z,38.50
2018-02-09T05:08:20.952Z,42.00
2018-02-09T05:09:23.900Z,38.00
2018-02-09T05:10:26.855Z,34.50
2018-02-09T05:11:30.092Z,31.50
2018-02-09T05:12:33.074Z,36.00
2018-02-09T05:13:36.040Z,34.00
2018-02-09T05:14:38.977Z,41.50
2018-02-09T05:15:41.935Z,39.50
2018-02-09T05:16:44.870Z,40.50
2018-02-09T05:17:48.083Z,38.50
2018-02-09T05:18:51.056Z,41.00
2018-02-09T05:19:54.006Z,37.00
2018-02-09T05:20:56.981Z,41.50
2018-02-09T05:21:59.942Z,41.00
2018-02-09T05:23:02.972Z,34.50
2018-02-09T05:24:06.204Z,38.50
2018-02-09T05:25:09.140Z,36.00
2018-02-09T05:26:12.116Z,46.50
2018-02-09T05:27:15.103Z,41.50
2018-02-09T05:28:18.044Z,41.50
2018-02-09T05:29:21.038Z,38.50
2018-02-09T05:30:24.257Z,30.00
2018-02-09T05:31:27.202Z,39.50
2018-02-09T05:32:30.140Z,44.00
2018-02-09T05:33:33.112Z,49.00
2018-02-09T05:34:36.068Z,49.00
2018-02-09T05:35:38.992Z,37.00
2018-02-09T05:36:42.321Z,44.00
2018-02-09T05:37:45.170Z,40.50
2018-02-09T05:38:48.048Z,38.50
2018-02-09T05:39:50.910Z,50.50
2018-02-09T05:40:53.763Z,45.00
2018-02-09T05:41:56.613Z,37.50
2018-02-09T05:42:59.860Z,40.50
2018-02-09T05:44:02.804Z,47.50
2018-02-09T05:45:05.762Z,42.50
2018-02-09T05:46:08.710Z,42.50
2018-02-09T05:47:11.636Z,46.00
2018-02-09T05:48:14.617Z,42.00
2018-02-09T05:49:17.839Z,46.50
2018-02-09T05:50:20.790Z,42.00
2018-02-09T05:51:23.722Z,36.00
2018-02-09T05:52:26.668Z,41.00
2018-02-09T05:53:29.598Z,41.00
2018-02-09T05:54:32.581Z,43.50
2018-02-09T05:55:35.947Z,44.00
2018-02-09T05:56:38.883Z,53.00
2018-02-09T05:57:41.830Z,48.50
2018-02-09T05:58:44.826Z,46.50
2018-02-09T05:59:47.764Z,44.50
2018-02-09T06:00:50.711Z,40.50
2018-02-09T06:01:53.965Z,45.00
2018-02-09T06:02:56.953Z,41.00
2018-02-09T06:03:59.863Z,54.00
2018-02-09T06:05:02.830Z,51.50
2018-02-09T06:06:05.754Z,46.00
2018-02-09T06:07:08.723Z,41.50
2018-02-09T06:08:11.947Z,48.00
2018-02-09T06:09:14.977Z,38.50
2018-02-09T06:10:17.938Z,48.00
2018-02-09T06:11:20.871Z,46.00
2018-02-09T06:12:23.827Z,44.00
2018-02-09T06:13:26.795Z,46.00
2018-02-09T06:14:30.161Z,46.50
2018-02-09T06:15:33.136Z,56.50
2018-02-09T06:16:36.076Z,48.50
2018-02-09T06:17:39.048Z,41.00
2018-02-09T06:18:42.155Z,53.50
2018-02-09T06:19:45.113Z,46.00
2018-02-09T06:20:48.392Z,39.50
2018-02-09T06:21:51.317Z,44.00
2018-02-09T06:22:54.232Z,37.50
2018-02-09T06:23:57.179Z,35.00
2018-02-09T06:25:00.114Z,36.50
2018-02-09T06:26:03.045Z,38.00
2018-02-09T06:27:06.540Z,35.00
2018-02-09T06:28:09.668Z,42.50
2018-02-09T06:29:12.586Z,43.50
2018-02-09T06:30:15.537Z,44.00
2018-02-09T06:31:18.527Z,38.00
2018-02-09T06:32:21.414Z,44.50
2018-02-09T06:33:24.329Z,37.50
2018-02-09T06:34:27.678Z,39.00
2018-02-09T06:35:30.634Z,49.50
2018-02-09T06:36:34.086Z,46.50
2018-02-09T06:37:37.105Z,48.50
2018-02-09T06:38:40.478Z,40.50
2018-02-09T06:39:43.458Z,48.50
2018-02-09T06:40:46.552Z,43.50
2018-02-09T06:41:49.562Z,42.50
2018-02-09T06:42:52.524Z,54.50
2018-02-09T06:43:55.509Z,45.50
2018-02-09T06:44:58.728Z,50.00
2018-02-09T06:46:01.732Z,56.50
2018-02-09T06:47:04.699Z,60.50
2018-02-09T06:48:07.643Z,49.50
2018-02-09T06:49:10.578Z,48.50
2018-02-09T06:50:13.529Z,53.50
2018-02-09T06:51:17.064Z,50.50
2018-02-09T06:52:20.010Z,61.50
2018-02-09T06:53:22.963Z,52.00
2018-02-09T06:54:25.846Z,52.00
2018-02-09T06:55:28.717Z,53.00
2018-02-09T06:56:31.664Z,44.00
2018-02-09T06:57:35.755Z,49.00
2018-02-09T06:58:38.709Z,48.00
2018-02-09T06:59:41.691Z,43.00
2018-02-09T07:00:44.688Z,53.50
2018-02-09T07:01:47.732Z,47.00
2018-02-09T07:02:50.748Z,48.50
2018-02-09T07:03:54.069Z,41.50
2018-02-09T07:04:57.037Z,46.00
2018-02-09T07:05:59.971Z,59.00
2018-02-09T07:07:02.940Z,52.00
2018-02-09T07:08:05.874Z,41.00
2018-02-09T07:09:08.836Z,49.00
2018-02-09T07:10:12.239Z,41.50
2018-02-09T07:11:15.208Z,46.50
2018-02-09T07:12:18.204Z,48.00
2018-02-09T07:13:21.190Z,40.50
2018-02-09T07:14:24.222Z,47.00
2018-02-09T07:15:27.188Z,53.50
2018-02-09T07:16:31.475Z,54.50
2018-02-09T07:17:34.429Z,52.00
2018-02-09T07:18:37.347Z,47.00
2018-02-09T07:19:40.398Z,54.50
2018-02-09T07:20:43.382Z,54.00
2018-02-09T07:21:46.423Z,48.50
2018-02-09T07:22:49.865Z,57.50
2018-02-09T07:23:53.486Z,45.00
2018-02-09T07:24:56.537Z,52.00
2018-02-09T07:25:59.489Z,47.50
2018-02-09T07:27:04.116Z,53.00
2018-02-09T07:28:08.287Z,48.00
2018-02-09T07:29:11.836Z,43.50
2018-02-09T07:30:14.815Z,52.00
2018-02-09T07:31:17.792Z,54.50
2018-02-09T07:32:20.752Z,50.00
2018-02-09T07:33:23.716Z,48.50
2018-02-09T07:34:26.668Z,62.50
2018-02-09T07:35:30.117Z,42.00
2018-02-09T07:36:33.099Z,49.50
2018-02-09T07:37:36.059Z,47.50
2018-02-09T07:38:39.023Z,60.00
2018-02-09T07:39:42.078Z,52.50
2018-02-09T07:40:45.089Z,52.00
2018-02-09T07:41:48.612Z,49.00
2018-02-09T07:42:51.562Z,61.00
2018-02-09T07:43:54.504Z,51.00
2018-02-09T07:44:57.490Z,48.00
2018-02-09T07:46:00.496Z,45.00
2018-02-09T07:47:03.503Z,56.00
2018-02-09T07:48:06.795Z,51.50
2018-02-09T07:49:09.835Z,54.50
2018-02-09T07:50:12.785Z,50.50
2018-02-09T07:51:15.742Z,53.00
2018-02-09T07:52:18.707Z,51.00
2018-02-09T07:53:21.676Z,50.50
2018-02-09T07:54:24.911Z,47.00
2018-02-09T07:55:28.008Z,49.00
2018-02-09T07:56:30.945Z,56.50
2018-02-09T07:57:33.887Z,52.50
2018-02-09T07:58:36.861Z,64.50
2018-02-09T07:59:39.856Z,55.00
2018-02-09T08:00:43.091Z,58.00
2018-02-09T08:01:46.049Z,58.50
2018-02-09T08:02:48.943Z,52.50
2018-02-09T08:03:51.843Z,60.00
2018-02-09T08:04:54.824Z,53.00
2018-02-09T08:05:57.778Z,63.50
2018-02-09T08:07:01.065Z,57.50
2018-02-09T08:08:04.018Z,60.50
2018-02-09T08:09:06.975Z,46.00
2018-02-09T08:10:09.921Z,64.50
2018-02-09T08:11:12.900Z,59.00
2018-02-09T08:12:15.856Z,59.00
2018-02-09T08:13:19.069Z,65.00
2018-02-09T08:14:22.025Z,64.50
2018-02-09T08:15:24.976Z,66.00
2018-02-09T08:16:27.959Z,59.50
2018-02-09T08:17:30.958Z,58.00
2018-02-09T08:18:33.889Z,65.00
2018-02-09T08:19:37.134Z,60.50
2018-02-09T08:20:40.078Z,63.50
2018-02-09T08:21:42.981Z,49.00
2018-02-09T08:22:45.874Z,64.00
2018-02-09T08:23:48.757Z,60.00
2018-02-09T08:24:51.742Z,55.00
2018-02-09T08:25:55.135Z,58.50
2018-02-09T08:26:58.011Z,64.00
2018-02-09T08:28:00.925Z,61.00
2018-02-09T08:29:04.328Z,64.00
2018-02-09T08:30:07.325Z,58.50
2018-02-09T08:31:10.244Z,58.00
2018-02-09T08:32:13.590Z,52.00
2018-02-09T08:33:16.935Z,62.00
2018-02-09T08:34:19.979Z,60.00
2018-02-09T08:35:22.922Z,64.00
2018-02-09T08:36:25.921Z,54.50
2018-02-09T08:37:28.884Z,55.00
2018-02-09T08:38:32.141Z,56.00
2018-02-09T08:39:35.090Z,58.00
2018-02-09T08:40:38.073Z,65.50
2018-02-09T08:41:41.037Z,62.50
2018-02-09T08:42:44.009Z,60.50
2018-02-09T08:43:47.003Z,60.00
2018-02-09T08:44:50.359Z,60.50
2018-02-09T08:45:53.309Z,59.00
2018-02-09T08:46:56.253Z,60.00
2018-02-09T08:47:59.214Z,59.00
2018-02-09T08:49:02.230Z,60.00
2018-02-09T08:50:05.191Z,57.50
2018-02-09T08:51:08.621Z,61.50
2018-02-09T08:52:11.629Z,62.00
2018-02-09T08:53:14.561Z,60.50
2018-02-09T08:54:17.556Z,54.50
2018-02-09T08:55:20.515Z,59.00
2018-02-09T08:56:23.459Z,63.00
2018-02-09T08:57:26.921Z,55.00
2018-02-09T08:58:30.390Z,55.50
2018-02-09T08:59:33.276Z,60.00
2018-02-09T09:00:36.413Z,64.00
2018-02-09T09:01:39.384Z,60.50
2018-02-09T09:02:42.336Z,69.00
2018-02-09T09:03:45.317Z,65.00
2018-02-09T09:04:48.566Z,60.50
2018-02-09T09:05:51.601Z,64.00
2018-02-09T09:06:54.582Z,65.50
2018-02-09T09:07:57.615Z,70.00
2018-02-09T09:09:00.614Z,55.50
2018-02-09T09:10:03.647Z,56.50
2018-02-09T09:11:06.610Z,65.50
2018-02-09T09:12:09.568Z,66.00
2018-02-09T09:13:12.509Z,61.50
2018-02-09T09:14:15.892Z,69.00
2018-02-09T09:15:18.858Z,64.00
2018-02-09T09:16:21.809Z,64.00
2018-02-09T09:17:24.795Z,66.50
2018-02-09T09:18:27.739Z,66.50
2018-02-09T09:19:30.752Z,62.00
2018-02-09T09:20:34.189Z,67.50
2018-02-09T09:21:37.232Z,61.00
2018-02-09T09:22:40.260Z,63.00
2018-02-09T09:23:43.200Z,50.00
2018-02-09T09:24:46.250Z,63.50
2018-02-09T09:25:49.195Z,63.50
2018-02-09T09:26:52.484Z,64.00
2018-02-09T09:27:55.428Z,62.00
2018-02-09T09:28:58.488Z,56.50
2018-02-09T09:30:01.440Z,62.00
2018-02-09T09:31:04.429Z,56.00
2018-02-09T09:32:07.924Z,59.50
2018-02-09T09:33:11.371Z,59.00
2018-02-09T09:34:14.347Z,54.00
2018-02-09T09:35:17.334Z,57.50
2018-02-09T09:36:20.263Z,70.00
2018-02-09T09:37:23.219Z,59.50
2018-02-09T09:38:26.261Z,59.00
2018-02-09T09:39:29.715Z,65.50
2018-02-09T09:40:32.697Z,62.50
2018-02-09T09:41:35.743Z,65.50
2018-02-09T09:42:38.803Z,68.00
2018-02-09T09:43:41.832Z,61.00
2018-02-09T09:44:45.423Z,60.00
2018-02-09T09:45:49.007Z,67.00
2018-02-09T09:46:51.989Z,61.50
2018-02-09T09:47:54.920Z,63.50
2018-02-09T09:48:57.933Z,51.50
2018-02-09T09:50:00.885Z,59.50
2018-02-09T09:51:03.818Z,58.50
2018-02-09T09:52:07.122Z,59.50
2018-02-09T09:53:10.035Z,63.00
2018-02-09T09:54:12.975Z,65.00
2018-02-09T09:55:15.878Z,59.50
2018-02-09T09:56:18.831Z,65.00
2018-02-09T09:57:21.878Z,72.00
2018-02-09T09:58:25.425Z,62.00
2018-02-09T09:59:28.461Z,67.50
2018-02-09T10:00:31.491Z,65.00
2018-02-09T10:01:34.456Z,61.00
2018-02-09T10:02:37.453Z,64.00
2018-02-09T10:03:40.403Z,61.50
2018-02-09T10:04:43.774Z,65.00
2018-02-09T10:05:46.810Z,62.00
2018-02-09T10:06:49.756Z,51.00
2018-02-09T10:07:52.748Z,54.50
2018-02-09T10:08:55.719Z,58.00
2018-02-09T10:09:58.680Z,55.00
2018-02-09T10:11:02.061Z,56.00
2018-02-09T10:12:05.038Z,66.00
2018-02-09T10:13:07.971Z,62.00
2018-02-09T10:14:10.960Z,42.00
2018-02-09T10:15:13.943Z,60.50
2018-02-09T10:16:16.946Z,32.00
2018-02-09T10:17:20.286Z,52.50
2018-02-09T10:18:23.267Z,47.50
2018-02-09T10:19:26.482Z,64.00
2018-02-09T10:20:29.456Z,42.00
2018-02-09T10:21:32.463Z,45.50
2018-02-09T10:22:35.432Z,52.50
2018-02-09T10:23:38.790Z,48.00
2018-02-09T10:24:41.657Z,43.00
2018-02-09T10:25:44.647Z,73.50
2018-02-09T10:26:47.589Z,46.00
2018-02-09T10:27:50.586Z,67.50
2018-02-09T10:28:53.553Z,59.50
2018-02-09T10:29:56.577Z,58.50
2018-02-09T10:30:59.535Z,48.00
2018-02-09T10:32:02.535Z,47.00
2018-02-09T10:33:05.520Z,60.50
2018-02-09T10:34:08.569Z,47.00
2018-02-09T10:35:11.449Z,43.50
2018-02-09T10:36:14.837Z,45.50
2018-02-09T10:37:17.809Z,67.00
2018-02-09T10:38:20.729Z,73.50
2018-02-09T10:39:23.583Z,53.00
2018-02-09T10:40:26.628Z,49.50
2018-02-09T10:41:29.591Z,48.50
2018-02-09T10:42:32.562Z,28.50
2018-02-09T10:43:35.564Z,46.50
2018-02-09T10:44:38.551Z,59.00
2018-02-09T10:45:41.553Z,62.00
2018-02-09T10:46:44.507Z,40.50
2018-02-09T10:47:47.967Z,44.50
2018-02-09T10:48:50.915Z,55.00
2018-02-09T10:49:53.873Z,47.00
2018-02-09T10:50:56.858Z,45.50
2018-02-09T10:51:59.840Z,47.00
2018-02-09T10:53:02.853Z,52.50
2018-02-09T10:54:06.243Z,53.50
2018-02-09T10:55:09.203Z,56.50
2018-02-09T10:56:12.202Z,44.00
2018-02-09T10:57:15.192Z,44.00
2018-02-09T10:58:18.287Z,63.50
2018-02-09T10:59:21.232Z,31.50
2018-02-09T11:00:28.525Z,35.00
2018-02-09T11:01:35.376Z,48.50
2018-02-09T11:02:38.361Z,44.50
2018-02-09T11:03:41.768Z,37.50
2018-02-09T11:04:44.786Z,43.50
2018-02-09T11:05:47.768Z,44.00
2018-02-09T11:06:51.180Z,45.00
2018-02-09T11:07:54.168Z,32.00
2018-02-09T11:08:57.123Z,39.00
2018-02-09T11:10:00.397Z,67.00
2018-02-09T11:11:05.312Z,45.00
2018-02-09T11:12:11.381Z,54.50
2018-02-09T11:13:16.816Z,38.50
2018-02-09T11:14:19.783Z,35.50
2018-02-09T11:15:22.735Z,47.00
2018-02-09T11:16:25.705Z,30.50
2018-02-09T11:17:29.008Z,44.00
2018-02-09T11:18:32.036Z,43.00
2018-02-09T11:19:35.437Z,44.50
2018-02-09T11:20:38.411Z,51.50
2018-02-09T11:21:41.409Z,41.00
2018-02-09T11:22:44.399Z,44.00
2018-02-09T11:23:47.397Z,46.00
2018-02-09T11:24:50.388Z,47.00
2018-02-09T11:25:53.927Z,54.00
2018-02-09T11:26:56.945Z,47.50
2018-02-09T11:27:59.948Z,47.00
2018-02-09T11:29:02.897Z,45.00
2018-02-09T11:30:05.933Z,43.50
2018-02-09T11:31:08.917Z,58.00
2018-02-09T11:32:12.021Z,45.00
2018-02-09T11:33:15.046Z,36.00
2018-02-09T11:34:17.985Z,32.50
2018-02-09T11:35:20.982Z,47.00
2018-02-09T11:36:24.047Z,56.00
2018-02-09T11:37:27.391Z,50.50
2018-02-09T11:38:30.363Z,35.00
2018-02-09T11:39:33.300Z,51.50
2018-02-09T11:40:36.262Z,55.50
2018-02-09T11:41:39.247Z,24.00
2018-02-09T11:42:42.381Z,52.50
2018-02-09T11:43:45.843Z,55.00
2018-02-09T11:44:48.839Z,49.50
2018-02-09T11:45:51.837Z,54.50
2018-02-09T11:46:54.792Z,61.50
2018-02-09T11:47:57.808Z,87.50
2018-02-09T11:49:00.758Z,71.00
2018-02-09T11:50:04.048Z,35.50
2018-02-09T11:51:07.127Z,45.50
2018-02-09T11:52:10.124Z,49.00
2018-02-09T11:53:13.078Z,32.00
2018-02-09T11:54:16.059Z,44.00
2018-02-09T11:55:19.066Z,49.50
2018-02-09T11:56:22.430Z,46.50
2018-02-09T11:57:25.440Z,46.00
2018-02-09T11:58:28.517Z,53.00
2018-02-09T11:59:31.499Z,32.50
2018-02-09T12:00:36.974Z,37.00
2018-02-09T12:01:39.992Z,43.00
2018-02-09T12:02:43.461Z,46.50
2018-02-09T12:03:46.441Z,57.50
2018-02-09T12:04:49.387Z,40.50
2018-02-09T12:05:52.359Z,47.00
2018-02-09T12:06:55.345Z,62.00
2018-02-09T12:07:58.290Z,38.00
2018-02-09T12:09:01.342Z,33.50
2018-02-09T12:10:04.309Z,49.00
2018-02-09T12:11:07.285Z,38.00
2018-02-09T12:12:10.239Z,34.50
2018-02-09T12:13:13.189Z,39.00
2018-02-09T12:14:16.479Z,48.50
2018-02-09T12:15:19.440Z,50.50
2018-02-09T12:16:22.488Z,40.00
2018-02-09T12:17:25.478Z,43.50
2018-02-09T12:18:28.487Z,46.50
2018-02-09T12:19:32.030Z,33.50
2018-02-09T12:20:35.354Z,68.50
2018-02-09T12:21:38.335Z,42.50
2018-02-09T12:22:41.268Z,27.50
2018-02-09T12:23:44.244Z,39.50
2018-02-09T12:24:47.265Z,44.50
2018-02-09T12:25:50.268Z,46.50
2018-02-09T12:26:53.393Z,58.50
2018-02-09T12:27:56.397Z,44.00
2018-02-09T12:29:00.001Z,55.50
2018-02-09T12:30:02.928Z,51.50
2018-02-09T12:31:05.879Z,44.00
2018-02-09T12:32:08.840Z,42.00
2018-02-09T12:33:12.088Z,39.00
2018-02-09T12:34:15.021Z,32.50
2018-02-09T12:35:18.257Z,37.00
2018-02-09T12:36:21.777Z,47.50
2018-02-09T12:37:25.795Z,45.50
2018-02-09T12:38:29.110Z,48.00
2018-02-09T12:39:32.478Z,50.50
2018-02-09T12:40:35.735Z,39.00
2018-02-09T12:41:38.891Z,51.00
2018-02-09T12:42:42.290Z,44.50
2018-02-09T12:43:45.944Z,48.00
2018-02-09T12:44:49.418Z,51.50
2018-02-09T12:45:53.027Z,44.50
2018-02-09T12:46:56.478Z,37.00
2018-02-09T12:48:00.147Z,40.50
2018-02-09T12:49:03.689Z,42.00
2018-02-09T12:50:07.395Z,40.50
2018-02-09T12:51:10.784Z,34.00
2018-02-09T12:52:14.434Z,40.50
2018-02-09T12:53:17.666Z,43.50
2018-02-09T12:54:21.815Z,57.50
2018-02-09T12:55:24.995Z,47.00
2018-02-09T12:56:28.262Z,52.00
2018-02-09T12:57:31.533Z,36.50
2018-02-09T12:58:35.192Z,19.50
2018-02-09T12:59:38.219Z,41.50
2018-02-09T13:00:41.301Z,47.00
2018-02-09T13:01:44.439Z,65.50
2018-02-09T13:02:47.460Z,45.00
2018-02-09T13:03:51.366Z,53.50
2018-02-09T13:04:54.769Z,35.50
2018-02-09T13:05:58.113Z,59.50
2018-02-09T13:07:02.973Z,46.00
2018-02-09T13:08:05.824Z,42.50
2018-02-09T13:09:08.784Z,43.50
2018-02-09T13:10:11.860Z,54.00
2018-02-09T13:11:15.157Z,46.00
2018-02-09T13:12:18.116Z,39.50
2018-02-09T13:13:21.249Z,46.00
2018-02-09T13:14:24.200Z,42.50
2018-02-09T13:15:27.158Z,41.50
2018-02-09T13:16:30.439Z,53.00
2018-02-09T13:17:33.871Z,42.00
2018-02-09T13:18:36.851Z,47.50
2018-02-09T13:19:40.024Z,53.50
2018-02-09T13:20:42.994Z,41.50
2018-02-09T13:21:46.004Z,44.50
2018-02-09T13:22:48.989Z,49.00
2018-02-09T13:23:52.291Z,51.00
2018-02-09T13:24:55.294Z,33.50
2018-02-09T13:25:58.247Z,34.50
2018-02-09T13:27:01.205Z,39.50
2018-02-09T13:28:04.221Z,48.50
2018-02-09T13:29:07.192Z,34.00
2018-02-09T13:30:10.452Z,48.50
2018-02-09T13:31:13.926Z,44.50
2018-02-09T13:32:16.889Z,44.50